Terminal Aerodrome Forecast
Issued by NWS

Home | Current Version | Previous Version | Text Only | Print | Product List | Glossary Off
Versions: 1 2 3 4 5 6 7 8 9 10 11 12 13 14 15

000
FTUS43 KGRB 262328
TAFATW
TAF
KATW 262328Z 2700/2724 26014G20KT P6SM SCT050 BKN080
     FM271400 27015G23KT P6SM BKN040
     FM271800 28013G21KT P6SM -SHRA OVC025
     FM272100 28012G20KT 5SM -SHRA BR OVC015=

USA.gov is the U.S. government's official web portal to all federal, state and local government web resources and services.